Time;durP1;ratioP1;P1;durP2;ratioP2;P2;SDS_P1;SDS_P2;PMS_P1;PMS_P2;Temp;Humidity;BMP_temperature;BMP_pressure;BME280_temperature;BME280_humidity;BME280_pressure;Samples;Min_cycle;Max_cycle;Signal;HPM_P1;HPM_P2
2022/10/01 00:01:06;;;;;;;12.07;9.68;;;10.60;99.90;;;;;;5088793;28;20075;-70
2022/10/01 00:03:34;;;;;;;11.18;9.85;;;10.60;99.90;;;;;;5053762;28;20044;-71
2022/10/01 00:06:02;;;;;;;12.55;9.95;;;10.60;99.90;;;;;;5041565;28;20037;-71
2022/10/01 00:08:29;;;;;;;14.45;10.48;;;10.60;99.90;;;;;;5070536;28;20044;-71
2022/10/01 00:10:55;;;;;;;13.13;10.35;;;10.50;99.90;;;;;;5056408;28;20481;-71
2022/10/01 00:13:21;;;;;;;13.43;10.67;;;10.50;99.90;;;;;;5043159;28;20075;-71
2022/10/01 00:15:47;;;;;;;14.73;10.52;;;10.50;99.90;;;;;;5033598;28;20045;-71
2022/10/01 00:18:13;;;;;;;12.43;9.80;;;10.50;99.90;;;;;;5058354;28;20460;-71
2022/10/01 00:20:42;;;;;;;18.80;10.90;;;10.50;99.90;;;;;;5058302;28;20044;-70
2022/10/01 00:23:09;;;;;;;12.43;10.48;;;10.50;99.90;;;;;;5050125;28;20044;-70
2022/10/01 00:25:35;;;;;;;14.52;11.02;;;10.50;99.90;;;;;;5072718;28;20087;-70
2022/10/01 00:28:01;;;;;;;13.88;11.02;;;10.50;99.90;;;;;;5060741;28;20060;-70
2022/10/01 00:30:27;;;;;;;13.30;10.90;;;10.40;99.90;;;;;;5037932;28;20071;-71
2022/10/01 00:32:53;;;;;;;16.00;11.50;;;10.40;99.90;;;;;;5053380;28;20048;-71
2022/10/01 00:35:21;;;;;;;14.00;11.40;;;10.40;99.90;;;;;;5068765;28;20132;-71
2022/10/01 00:37:51;;;;;;;18.73;11.25;;;10.40;99.90;;;;;;5060858;28;20048;-71
2022/10/01 00:40:19;;;;;;;12.27;10.88;;;10.40;99.90;;;;;;5053777;28;20082;-71
2022/10/01 00:42:45;;;;;;;13.88;10.98;;;10.30;99.90;;;;;;5083207;28;20417;-71
2022/10/01 00:45:14;;;;;;;14.50;10.40;;;10.30;99.90;;;;;;5053867;28;20104;-71
2022/10/01 00:47:53;;;;;;;13.93;11.27;;;10.30;99.90;;;;;;5036085;28;20055;-71
2022/10/01 00:50:32;;;;;;;13.68;10.48;;;10.20;99.90;;;;;;5070536;28;20047;-71
2022/10/01 00:53:02;;;;;;;11.60;9.98;;;10.20;99.90;;;;;;5053671;28;20041;-71
2022/10/01 00:55:40;;;;;;;18.05;9.88;;;10.20;99.90;;;;;;5070813;28;20447;-71
2022/10/01 00:58:07;;;;;;;12.27;9.50;;;10.20;99.90;;;;;;5085753;28;20695;-71
2022/10/01 01:00:36;;;;;;;12.63;9.48;;;10.20;99.90;;;;;;5023282;28;20033;-71
2022/10/01 01:03:03;;;;;;;12.45;9.73;;;10.20;99.90;;;;;;5055859;28;20044;-71
2022/10/01 01:05:29;;;;;;;13.02;8.68;;;10.20;99.90;;;;;;5054535;28;20047;-71
2022/10/01 01:08:00;;;;;;;10.07;8.40;;;10.20;99.90;;;;;;5052177;28;20051;-71
2022/10/01 01:10:51;;;;;;;13.27;8.85;;;10.10;99.90;;;;;;5053835;28;20565;-71
2022/10/01 01:13:55;;;;;;;13.68;9.55;;;10.10;99.90;;;;;;5069514;28;20046;-71
2022/10/01 01:16:41;;;;;;;10.40;8.43;;;10.10;99.90;;;;;;5011797;28;20048;-71
2022/10/01 01:19:07;;;;;;;11.18;9.18;;;10.10;99.90;;;;;;5011132;28;20037;-71
2022/10/01 01:21:43;;;;;;;10.53;9.00;;;10.20;99.90;;;;;;5055168;28;20040;-71
2022/10/01 01:24:40;;;;;;;12.65;8.77;;;10.20;99.90;;;;;;5048354;28;20135;-71
2022/10/01 01:27:27;;;;;;;11.63;8.80;;;10.20;99.90;;;;;;5074046;28;20047;-71
2022/10/01 01:30:05;;;;;;;9.93;8.20;;;10.20;99.90;;;;;;5074760;28;20565;-71
2022/10/01 01:32:46;;;;;;;12.38;8.35;;;10.10;99.90;;;;;;5077721;28;20047;-71
2022/10/01 01:35:23;;;;;;;10.00;8.10;;;10.10;99.90;;;;;;5070810;28;20377;-71
2022/10/01 01:37:54;;;;;;;10.45;8.05;;;10.10;99.90;;;;;;5060107;28;20041;-71
2022/10/01 01:40:21;;;;;;;9.90;7.53;;;10.10;99.90;;;;;;5053661;28;20044;-71
2022/10/01 01:42:48;;;;;;;11.32;7.90;;;10.10;99.90;;;;;;5053529;28;20083;-71
2022/10/01 01:45:19;;;;;;;9.90;7.35;;;10.10;99.90;;;;;;5079818;28;20090;-71
2022/10/01 01:47:45;;;;;;;9.70;7.90;;;10.10;99.90;;;;;;5068971;28;20137;-71
2022/10/01 01:50:14;;;;;;;9.70;7.95;;;10.10;99.90;;;;;;5046891;28;20060;-71
2022/10/01 01:52:40;;;;;;;9.15;7.70;;;10.20;99.90;;;;;;5052865;28;20048;-71
2022/10/01 01:55:07;;;;;;;10.47;7.57;;;10.20;99.90;;;;;;5056117;28;20550;-71
2022/10/01 01:57:41;;;;;;;9.20;6.90;;;10.20;99.90;;;;;;5070320;28;20048;-71
2022/10/01 02:00:08;;;;;;;9.18;7.38;;;10.20;99.90;;;;;;5059760;28;20052;-71
2022/10/01 02:02:36;;;;;;;11.27;6.90;;;10.20;99.90;;;;;;5052869;28;20486;-71
2022/10/01 02:05:08;;;;;;;7.57;6.63;;;10.20;99.90;;;;;;5060033;28;20045;-71
2022/10/01 02:07:51;;;;;;;7.65;6.00;;;10.20;99.90;;;;;;5053007;28;20430;-71
2022/10/01 02:10:36;;;;;;;7.00;5.70;;;10.20;99.90;;;;;;5070142;28;20040;-71
2022/10/01 02:13:26;;;;;;;7.20;6.07;;;10.30;99.90;;;;;;5049683;28;20144;-71
2022/10/01 02:16:06;;;;;;;7.75;5.90;;;10.30;99.90;;;;;;5064580;28;20033;-71
2022/10/01 02:18:51;;;;;;;7.18;5.03;;;10.30;99.90;;;;;;5039105;28;20045;-71
2022/10/01 02:21:32;;;;;;;7.05;6.05;;;10.40;99.90;;;;;;5068352;28;20101;-71
2022/10/01 02:24:06;;;;;;;7.30;5.40;;;10.40;99.90;;;;;;5043173;28;20507;-71
2022/10/01 02:26:35;;;;;;;6.10;5.00;;;10.40;99.90;;;;;;5069503;28;20652;-71
2022/10/01 02:29:07;;;;;;;8.00;5.63;;;10.40;99.90;;;;;;5052764;28;20577;-71
2022/10/01 02:31:33;;;;;;;6.30;5.00;;;10.40;99.90;;;;;;5067777;28;20044;-71
2022/10/01 02:34:01;;;;;;;7.47;4.85;;;10.40;99.90;;;;;;5062788;28;20479;-71
2022/10/01 02:36:31;;;;;;;5.10;4.53;;;10.50;99.90;;;;;;5052827;28;20048;-71
2022/10/01 02:38:59;;;;;;;5.85;4.80;;;10.40;99.90;;;;;;5050101;28;20044;-71
2022/10/01 02:41:30;;;;;;;6.85;4.95;;;10.50;99.90;;;;;;5054643;28;20068;-71
2022/10/01 02:44:14;;;;;;;6.32;4.65;;;10.50;99.90;;;;;;5077482;28;20044;-71
2022/10/01 02:46:59;;;;;;;5.60;4.40;;;10.50;99.90;;;;;;5056457;28;20040;-71
2022/10/01 02:49:27;;;;;;;5.28;4.43;;;10.40;99.90;;;;;;5079691;28;20069;-71
2022/10/01 02:52:27;;;;;;;6.40;4.40;;;10.50;99.90;;;;;;5049690;28;20040;-71
2022/10/01 02:55:06;;;;;;;4.35;3.58;;;10.50;99.90;;;;;;5053141;28;20127;-71
2022/10/01 02:57:32;;;;;;;5.55;3.58;;;10.50;99.90;;;;;;5055077;28;20044;-71
2022/10/01 03:00:10;;;;;;;4.03;3.38;;;10.50;99.90;;;;;;5080035;28;20507;-71
2022/10/01 03:02:35;;;;;;;4.55;2.80;;;10.60;99.90;;;;;;5069220;28;20519;-72
2022/10/01 03:05:02;;;;;;;5.00;2.80;;;10.60;99.90;;;;;;5076878;28;20052;-71
2022/10/01 03:07:30;;;;;;;2.97;2.35;;;10.60;99.90;;;;;;5054361;28;20475;-71
2022/10/01 03:09:56;;;;;;;4.30;2.47;;;10.60;99.90;;;;;;5052702;28;20109;-71
2022/10/01 03:12:22;;;;;;;2.83;2.10;;;10.60;99.90;;;;;;5029970;28;20536;-71
2022/10/01 03:14:48;;;;;;;2.20;1.67;;;10.60;99.90;;;;;;5040996;28;20527;-71
2022/10/01 03:17:15;;;;;;;2.78;1.70;;;10.70;99.90;;;;;;5067132;28;20032;-71
2022/10/01 03:19:41;;;;;;;2.80;2.00;;;10.70;99.90;;;;;;5058598;28;20500;-71
2022/10/01 03:22:08;;;;;;;2.67;1.90;;;10.70;99.90;;;;;;5069819;28;20097;-71
2022/10/01 03:24:34;;;;;;;4.22;2.08;;;10.70;99.90;;;;;;5061064;28;20533;-71
2022/10/01 03:27:00;;;;;;;2.92;2.00;;;10.70;99.90;;;;;;5048146;28;20591;-71
2022/10/01 03:29:26;;;;;;;2.87;2.20;;;10.70;99.90;;;;;;5036548;28;20387;-71
2022/10/01 03:31:52;;;;;;;3.78;2.30;;;10.70;99.90;;;;;;5050918;28;20044;-71
2022/10/01 03:34:18;;;;;;;2.58;2.10;;;10.70;99.90;;;;;;5077638;28;20072;-71
2022/10/01 03:36:44;;;;;;;4.00;2.77;;;10.80;99.90;;;;;;5040419;28;20072;-71
2022/10/01 03:39:09;;;;;;;2.80;2.40;;;10.80;99.90;;;;;;5069131;28;20124;-71
2022/10/01 03:41:36;;;;;;;2.73;2.10;;;10.80;99.90;;;;;;5051634;28;20040;-71
2022/10/01 03:44:03;;;;;;;3.00;2.50;;;10.80;99.90;;;;;;5052221;28;20036;-71
2022/10/01 03:46:29;;;;;;;2.90;2.40;;;10.80;99.90;;;;;;5055655;28;20041;-71
2022/10/01 03:48:56;;;;;;;3.55;2.70;;;10.80;99.90;;;;;;5060795;28;20039;-71
2022/10/01 03:51:22;;;;;;;2.63;2.42;;;10.90;99.90;;;;;;5073465;28;20055;-71
2022/10/01 03:53:48;;;;;;;2.72;2.47;;;10.90;99.90;;;;;;5062098;28;20505;-71
2022/10/01 03:56:15;;;;;;;2.42;2.22;;;10.90;99.90;;;;;;5068507;28;20405;-71
2022/10/01 03:58:41;;;;;;;2.97;2.40;;;10.90;99.90;;;;;;5050432;28;20100;-71
2022/10/01 04:01:07;;;;;;;3.03;2.63;;;10.90;99.90;;;;;;5070867;28;20555;-71
2022/10/01 04:03:32;;;;;;;3.37;2.33;;;11.00;99.90;;;;;;5044977;28;20110;-71
2022/10/01 04:05:58;;;;;;;2.77;2.37;;;11.00;99.90;;;;;;5036288;28;20044;-71
2022/10/01 04:08:24;;;;;;;2.90;2.37;;;11.00;99.90;;;;;;5060584;28;20051;-71
2022/10/01 04:10:50;;;;;;;3.17;2.28;;;11.10;99.90;;;;;;5056605;28;20044;-71
2022/10/01 04:13:16;;;;;;;2.90;2.67;;;11.20;99.90;;;;;;5026654;28;20540;-71
2022/10/01 04:15:42;;;;;;;2.80;2.60;;;11.20;99.90;;;;;;5079453;28;20056;-71
2022/10/01 04:18:09;;;;;;;4.78;2.92;;;11.30;99.90;;;;;;5078248;28;20307;-71
2022/10/01 04:20:36;;;;;;;6.03;3.92;;;11.30;99.90;;;;;;5061963;28;20094;-71
2022/10/01 04:23:03;;;;;;;5.55;3.90;;;11.40;99.90;;;;;;5067085;28;20037;-71
2022/10/01 04:25:29;;;;;;;4.95;3.33;;;11.50;99.90;;;;;;5044648;28;20119;-71
2022/10/01 04:28:03;;;;;;;4.38;3.67;;;11.50;99.90;;;;;;5041357;28;20060;-71
2022/10/01 04:30:32;;;;;;;5.95;3.83;;;11.50;99.90;;;;;;5090264;28;20044;-71
2022/10/01 04:32:58;;;;;;;5.15;3.60;;;11.50;99.90;;;;;;5078345;28;20043;-71
2022/10/01 04:35:24;;;;;;;6.00;4.20;;;11.60;99.90;;;;;;5068879;28;20131;-71
2022/10/01 04:38:11;;;;;;;4.60;4.05;;;11.60;99.90;;;;;;5055369;28;20052;-71
2022/10/01 04:40:37;;;;;;;5.35;3.80;;;11.70;99.90;;;;;;5062684;28;20075;-71
2022/10/01 04:43:04;;;;;;;5.17;3.63;;;11.70;99.90;;;;;;5059094;28;20036;-71
2022/10/01 04:45:31;;;;;;;6.57;4.10;;;11.80;99.90;;;;;;5052617;28;20776;-71
2022/10/01 04:47:58;;;;;;;5.93;3.90;;;11.80;99.90;;;;;;5056623;28;20290;-71
2022/10/01 04:50:25;;;;;;;6.37;3.60;;;11.80;99.90;;;;;;5081274;28;20052;-71
2022/10/01 04:52:52;;;;;;;5.73;3.50;;;11.80;99.90;;;;;;5071564;28;20865;-71
2022/10/01 04:55:19;;;;;;;7.47;3.78;;;11.80;99.90;;;;;;5037963;28;20790;-71
2022/10/01 04:57:45;;;;;;;6.53;4.03;;;11.90;99.90;;;;;;5055282;28;20044;-72
2022/10/01 05:00:14;;;;;;;6.70;3.87;;;11.90;99.90;;;;;;5046590;28;20368;-71
2022/10/01 05:02:43;;;;;;;7.13;3.93;;;11.80;99.90;;;;;;5058182;28;20127;-71
2022/10/01 05:05:09;;;;;;;8.23;4.03;;;11.80;99.90;;;;;;5072768;28;20350;-71
2022/10/01 05:07:37;;;;;;;6.20;4.57;;;11.70;99.90;;;;;;5066901;28;20379;-71
2022/10/01 05:10:03;;;;;;;5.63;4.20;;;11.70;99.90;;;;;;5054680;28;20290;-71
2022/10/01 05:12:29;;;;;;;7.20;4.57;;;11.70;99.90;;;;;;5063639;28;20627;-71
2022/10/01 05:14:55;;;;;;;7.73;4.37;;;11.60;99.90;;;;;;5037357;28;20285;-71
2022/10/01 05:17:22;;;;;;;8.93;3.87;;;11.70;99.90;;;;;;5044066;28;20072;-71
2022/10/01 05:19:47;;;;;;;9.50;4.37;;;11.70;99.90;;;;;;5056644;28;20336;-71
2022/10/01 05:22:14;;;;;;;8.37;4.10;;;11.70;99.90;;;;;;5060178;28;20283;-71
2022/10/01 05:24:42;;;;;;;9.87;3.90;;;11.80;99.90;;;;;;5046411;28;20226;-71
2022/10/01 05:27:09;;;;;;;9.80;4.30;;;11.80;99.90;;;;;;5072859;28;20310;-71
2022/10/01 05:29:35;;;;;;;9.07;3.73;;;11.80;99.90;;;;;;5060416;28;20290;-71
2022/10/01 05:32:01;;;;;;;9.63;3.17;;;11.90;99.90;;;;;;5050499;28;20278;-71
2022/10/01 05:34:27;;;;;;;9.40;3.17;;;11.90;99.90;;;;;;5070175;28;20718;-71
2022/10/01 05:36:54;;;;;;;8.07;3.40;;;11.90;99.90;;;;;;5050754;28;20043;-69
2022/10/01 05:39:19;;;;;;;10.43;3.90;;;12.00;99.90;;;;;;5047417;28;20506;-69
2022/10/01 05:41:45;;;;;;;10.73;3.60;;;12.00;99.90;;;;;;5070017;28;20290;-68
2022/10/01 05:44:11;;;;;;;9.10;3.50;;;12.00;99.90;;;;;;5016242;28;20482;-68
2022/10/01 05:46:36;;;;;;;12.33;3.67;;;12.00;99.90;;;;;;5036122;28;20036;-68
2022/10/01 05:49:02;;;;;;;11.57;3.27;;;12.00;99.90;;;;;;5065833;28;20037;-68
2022/10/01 05:51:29;;;;;;;10.53;3.60;;;12.10;99.90;;;;;;5032017;28;20662;-71
2022/10/01 05:53:57;;;;;;;10.13;3.10;;;12.10;99.90;;;;;;5044487;28;20597;-71
2022/10/01 05:56:24;;;;;;;15.70;3.53;;;12.10;99.90;;;;;;5060504;28;20338;-71
2022/10/01 05:58:49;;;;;;;11.40;3.20;;;12.10;99.90;;;;;;5041944;28;20305;-70
2022/10/01 06:01:15;;;;;;;10.47;2.60;;;12.20;99.90;;;;;;5056386;28;20815;-70
2022/10/01 06:03:41;;;;;;;9.57;2.60;;;12.20;99.90;;;;;;5070834;28;20094;-70
2022/10/01 06:06:07;;;;;;;11.63;3.33;;;12.20;99.90;;;;;;5045224;28;20048;-70
2022/10/01 06:08:34;;;;;;;14.87;3.53;;;12.20;99.90;;;;;;5054373;28;20302;-70
2022/10/01 06:11:01;;;;;;;11.13;3.03;;;12.30;99.90;;;;;;5051467;28;20036;-70
2022/10/01 06:13:28;;;;;;;14.30;3.07;;;12.30;99.90;;;;;;5047411;28;20636;-71
2022/10/01 06:15:54;;;;;;;7.17;2.63;;;12.30;99.90;;;;;;5017582;28;20279;-71
2022/10/01 06:18:19;;;;;;;5.70;1.90;;;12.40;99.90;;;;;;5047724;28;21068;-71
2022/10/01 06:20:45;;;;;;;9.03;1.87;;;12.40;99.90;;;;;;5058610;28;20286;-71
2022/10/01 06:23:12;;;;;;;11.53;1.83;;;12.30;99.90;;;;;;5060353;28;20040;-71
2022/10/01 06:25:39;;;;;;;5.07;0.80;;;12.30;99.90;;;;;;5052113;28;20040;-71
2022/10/01 06:28:09;;;;;;;10.57;2.23;;;12.20;99.90;;;;;;5070545;28;20294;-71
2022/10/01 06:30:38;;;;;;;12.03;1.60;;;12.10;99.90;;;;;;5053644;28;20330;-71
2022/10/01 06:33:09;;;;;;;11.53;1.70;;;12.10;99.90;;;;;;5063888;28;20790;-71
2022/10/01 06:35:39;;;;;;;21.10;2.40;;;12.10;99.90;;;;;;5060165;28;20370;-71
2022/10/01 06:38:05;;;;;;;7.70;1.87;;;12.20;99.90;;;;;;5037204;28;20307;-71
2022/10/01 06:40:31;;;;;;;9.63;1.80;;;12.20;99.90;;;;;;5062661;28;20286;-71
2022/10/01 06:42:57;;;;;;;6.40;0.83;;;12.20;99.90;;;;;;5066268;28;20389;-71
2022/10/01 06:45:36;;;;;;;9.53;1.57;;;12.10;99.90;;;;;;5067519;28;20467;-71
2022/10/01 06:48:03;;;;;;;8.07;1.27;;;11.90;99.90;;;;;;5067929;28;20791;-71
2022/10/01 06:50:30;;;;;;;3.97;0.70;;;11.70;99.90;;;;;;5069942;28;20324;-71
2022/10/01 06:52:57;;;;;;;5.07;0.90;;;11.50;99.90;;;;;;5047492;28;20626;-71
2022/10/01 06:55:28;;;;;;;4.77;0.63;;;11.40;99.90;;;;;;5063441;28;20623;-71
2022/10/01 06:57:59;;;;;;;4.27;0.77;;;11.30;99.90;;;;;;5069992;28;20278;-71
2022/10/01 07:00:27;;;;;;;5.43;1.10;;;11.20;99.90;;;;;;5069615;28;20667;-71
2022/10/01 07:02:54;;;;;;;4.83;1.40;;;11.20;99.90;;;;;;5057226;28;20286;-72
2022/10/01 07:05:21;;;;;;;8.53;1.07;;;11.10;99.90;;;;;;5078025;28;20274;-71
2022/10/01 07:07:47;;;;;;;6.20;1.10;;;11.10;99.90;;;;;;5045266;28;20309;-70
2022/10/01 07:10:14;;;;;;;8.27;1.43;;;11.10;99.90;;;;;;5076276;28;20324;-71
2022/10/01 07:12:40;;;;;;;8.93;1.53;;;11.20;99.90;;;;;;5053831;28;20444;-71
2022/10/01 07:15:07;;;;;;;12.83;1.40;;;11.30;99.90;;;;;;5034138;28;20343;-71
2022/10/01 07:17:34;;;;;;;9.97;1.90;;;11.40;99.90;;;;;;5098097;28;20055;-71
2022/10/01 07:20:00;;;;;;;10.60;1.20;;;11.50;99.90;;;;;;5063902;28;20298;-72
2022/10/01 07:22:26;;;;;;;9.43;1.00;;;11.70;99.90;;;;;;5059299;28;20274;-72
2022/10/01 07:24:52;;;;;;;9.20;1.97;;;11.70;99.90;;;;;;5060308;28;20293;-71
2022/10/01 07:27:18;;;;;;;7.73;1.77;;;11.80;99.90;;;;;;5070644;28;20043;-71
2022/10/01 07:29:44;;;;;;;7.07;1.77;;;11.90;99.90;;;;;;5088594;28;20052;-71
2022/10/01 07:32:10;;;;;;;10.03;1.57;;;12.00;99.90;;;;;;5026565;28;20293;-71
2022/10/01 07:34:41;;;;;;;11.40;1.60;;;12.10;99.90;;;;;;5076751;28;20040;-71
2022/10/01 07:37:08;;;;;;;13.33;2.37;;;12.20;99.90;;;;;;5049979;28;20054;-71
2022/10/01 07:39:35;;;;;;;12.80;2.23;;;12.30;99.90;;;;;;5071196;28;20299;-71
2022/10/01 07:42:01;;;;;;;14.50;2.27;;;12.40;99.90;;;;;;5033947;28;20314;-71
2022/10/01 07:44:28;;;;;;;11.27;1.90;;;12.60;99.90;;;;;;5065742;28;20310;-71
2022/10/01 07:46:55;;;;;;;11.03;2.20;;;12.80;99.90;;;;;;5052226;28;20087;-71
2022/10/01 07:49:23;;;;;;;21.07;2.70;;;13.00;99.90;;;;;;5061191;28;20287;-71
2022/10/01 07:51:51;;;;;;;12.50;2.70;;;13.10;99.90;;;;;;5075474;28;20293;-71
2022/10/01 07:54:17;;;;;;;13.57;2.37;;;13.30;99.90;;;;;;5038460;28;20315;-71
2022/10/01 07:56:43;;;;;;;12.70;2.47;;;13.40;99.90;;;;;;5034081;28;20759;-72
2022/10/01 07:59:09;;;;;;;14.83;2.63;;;13.70;99.90;;;;;;5026675;28;20389;-71
2022/10/01 08:01:36;;;;;;;20.03;2.83;;;13.90;99.90;;;;;;5034082;28;20032;-71
2022/10/01 08:05:16;;;;;;;14.77;2.60;;;14.20;99.90;;;;;;5050026;28;20282;-71
2022/10/01 08:06:47;;;;;;;16.47;3.13;;;14.40;99.90;;;;;;5058006;28;20517;-71
2022/10/01 08:09:14;;;;;;;12.57;2.13;;;14.40;99.90;;;;;;5054427;28;20393;-71
2022/10/01 08:11:40;;;;;;;17.50;2.50;;;14.50;99.90;;;;;;5035797;28;20283;-72
2022/10/01 08:14:06;;;;;;;16.20;2.30;;;14.40;99.90;;;;;;5048312;28;20888;-72
2022/10/01 08:16:33;;;;;;;12.30;1.97;;;14.50;99.90;;;;;;5054665;28;20314;-71
2022/10/01 08:18:59;;;;;;;9.07;1.30;;;14.50;99.90;;;;;;5055980;28;20747;-71
2022/10/01 08:21:27;;;;;;;7.07;1.10;;;14.40;99.90;;;;;;5070838;28;20370;-72
2022/10/01 08:23:53;;;;;;;13.37;1.30;;;14.30;99.90;;;;;;5052891;28;20370;-72
2022/10/01 08:26:19;;;;;;;9.07;1.63;;;14.00;99.90;;;;;;5041924;28;20314;-71
2022/10/01 08:28:44;;;;;;;7.73;1.20;;;13.80;99.90;;;;;;5072431;28;20064;-72
2022/10/01 08:31:10;;;;;;;12.47;1.73;;;13.70;99.90;;;;;;5038255;28;20107;-72
2022/10/01 08:33:37;;;;;;;13.40;1.47;;;13.50;99.90;;;;;;5051208;28;20108;-72
2022/10/01 08:36:08;;;;;;;11.27;1.70;;;13.50;99.90;;;;;;5036876;28;20033;-71
2022/10/01 08:38:34;;;;;;;8.83;1.30;;;13.40;99.90;;;;;;5066877;28;20337;-71
2022/10/01 08:41:16;;;;;;;15.60;2.83;;;13.40;99.90;;;;;;5043959;28;20361;-71
2022/10/01 08:43:42;;;;;;;9.30;1.57;;;13.40;99.90;;;;;;5082972;28;20267;-71
2022/10/01 08:46:20;;;;;;;8.07;1.13;;;13.50;99.90;;;;;;5037985;28;20841;-71
2022/10/01 08:49:02;;;;;;;8.40;1.43;;;13.50;99.90;;;;;;5069629;28;20289;-71
2022/10/01 08:51:54;;;;;;;12.60;1.70;;;13.50;99.90;;;;;;5064228;28;20290;-71
2022/10/01 08:54:28;;;;;;;12.30;1.40;;;13.50;99.90;;;;;;5072719;28;20292;-71
2022/10/01 08:56:58;;;;;;;11.50;1.48;;;13.60;99.90;;;;;;5055769;28;20309;-71
2022/10/01 08:59:42;;;;;;;10.47;1.37;;;13.90;99.90;;;;;;5072948;28;20053;-71
2022/10/01 09:02:23;;;;;;;12.73;1.70;;;14.30;99.90;;;;;;5057044;28;21024;-71
2022/10/01 09:05:04;;;;;;;9.70;1.50;;;14.60;99.90;;;;;;5055174;28;20266;-71
2022/10/01 09:07:34;;;;;;;9.77;1.60;;;14.90;99.90;;;;;;5081410;28;20310;-71
2022/10/01 09:10:26;;;;;;;11.43;1.57;;;15.00;99.90;;;;;;5071087;28;20368;-71
2022/10/01 09:13:22;;;;;;;11.50;1.37;;;15.20;99.90;;;;;;5055293;28;20283;-71
2022/10/01 09:16:01;;;;;;;12.37;1.30;;;15.20;99.90;;;;;;5080192;28;20303;-71
2022/10/01 09:18:54;;;;;;;9.97;1.53;;;15.20;99.90;;;;;;5071658;28;20306;-71
2022/10/01 09:21:50;;;;;;;9.43;1.17;;;15.20;99.90;;;;;;5050703;28;20305;-71
2022/10/01 09:24:45;;;;;;;9.07;1.40;;;15.20;99.90;;;;;;5067240;28;20279;-71
2022/10/01 09:27:23;;;;;;;12.23;1.47;;;15.40;99.90;;;;;;5056210;28;20289;-71
2022/10/01 09:29:59;;;;;;;7.07;1.20;;;15.50;99.90;;;;;;5083500;28;20286;-71
2022/10/01 09:32:56;;;;;;;10.60;1.63;;;15.40;99.90;;;;;;5051531;28;20291;-71
2022/10/01 09:35:39;;;;;;;9.80;1.20;;;15.10;99.90;;;;;;5068792;28;20275;-71
2022/10/01 09:38:26;;;;;;;7.00;1.00;;;14.40;99.90;;;;;;5070888;28;20363;-71
2022/10/01 09:40:57;;;;;;;6.83;0.90;;;13.50;99.90;;;;;;5070598;28;20279;-71
2022/10/01 09:43:27;;;;;;;5.53;0.80;;;13.00;99.90;;;;;;5053847;28;20283;-71
2022/10/01 09:45:53;;;;;;;7.07;0.73;;;12.80;99.90;;;;;;5050178;28;20485;-71
2022/10/01 09:48:31;;;;;;;7.87;1.20;;;12.70;99.90;;;;;;5039100;28;20618;-71
2022/10/01 09:51:05;;;;;;;9.97;1.13;;;12.80;99.90;;;;;;5083389;28;20047;-71
2022/10/01 09:53:42;;;;;;;9.03;1.33;;;12.90;99.90;;;;;;5062178;28;20383;-72
2022/10/01 09:56:20;;;;;;;9.23;0.90;;;12.90;99.90;;;;;;5050508;28;20473;-72
2022/10/01 09:58:52;;;;;;;9.83;1.53;;;13.00;99.90;;;;;;5069268;28;20307;-71
2022/10/01 10:01:35;;;;;;;7.30;1.23;;;13.00;99.90;;;;;;5070872;28;20705;-72
2022/10/01 10:04:01;;;;;;;4.83;0.87;;;13.10;99.90;;;;;;5067641;28;20290;-71
2022/10/01 10:06:28;;;;;;;4.90;0.93;;;13.10;99.90;;;;;;5039023;28;20505;-71
2022/10/01 10:08:57;;;;;;;3.53;0.70;;;13.10;99.90;;;;;;5063890;28;20045;-71
2022/10/01 10:11:30;;;;;;;7.17;1.13;;;13.00;99.90;;;;;;5066150;28;20385;-71
2022/10/01 10:14:02;;;;;;;8.87;1.47;;;13.00;99.90;;;;;;5082918;28;20793;-71
2022/10/01 10:16:29;;;;;;;8.17;1.20;;;13.10;99.90;;;;;;5071759;28;20289;-71
2022/10/01 10:19:18;;;;;;;17.53;1.87;;;13.20;99.90;;;;;;5079970;28;20303;-71
2022/10/01 10:21:57;;;;;;;13.23;1.53;;;13.30;99.90;;;;;;5066023;28;20289;-71
2022/10/01 10:24:32;;;;;;;13.87;1.30;;;13.40;99.90;;;;;;5060206;28;20325;-71
2022/10/01 10:26:59;;;;;;;16.17;1.63;;;13.50;99.90;;;;;;5070764;28;20332;-71
2022/10/01 10:29:36;;;;;;;11.70;1.27;;;13.60;99.90;;;;;;5066275;28;20059;-71
2022/10/01 10:32:13;;;;;;;14.43;1.90;;;13.60;99.90;;;;;;5057304;28;20323;-71
2022/10/01 10:34:45;;;;;;;14.13;1.50;;;13.60;99.90;;;;;;5083573;28;20332;-71
2022/10/01 10:37:14;;;;;;;9.47;1.47;;;13.70;99.90;;;;;;5058788;28;20301;-71
2022/10/01 10:39:43;;;;;;;10.70;1.43;;;13.80;99.90;;;;;;5075887;28;20298;-71
2022/10/01 10:42:14;;;;;;;9.80;1.60;;;13.90;99.90;;;;;;5047321;28;20288;-71
2022/10/01 10:44:43;;;;;;;12.87;1.40;;;14.00;99.90;;;;;;5052004;28;20286;-71
2022/10/01 10:47:12;;;;;;;11.70;1.50;;;14.20;99.90;;;;;;5073328;28;20605;-72
2022/10/01 10:49:57;;;;;;;11.43;1.27;;;14.40;99.90;;;;;;5055415;28;20287;-72
2022/10/01 10:52:35;;;;;;;17.20;2.00;;;14.60;99.90;;;;;;5081706;28;20283;-72
2022/10/01 10:55:23;;;;;;;9.87;1.77;;;14.70;99.90;;;;;;5051560;28;20680;-72
2022/10/01 10:57:50;;;;;;;14.93;2.00;;;14.70;99.90;;;;;;5058045;28;20274;-72
2022/10/01 11:00:24;;;;;;;8.23;1.20;;;14.70;99.90;;;;;;5051675;28;20338;-72
2022/10/01 11:03:00;;;;;;;11.85;1.73;;;14.60;99.90;;;;;;5063185;28;20279;-72
2022/10/01 11:05:31;;;;;;;14.17;1.73;;;14.50;99.90;;;;;;5079842;28;20040;-72
2022/10/01 11:08:05;;;;;;;12.67;1.73;;;14.50;99.90;;;;;;5068939;28;20306;-72
2022/10/01 11:10:36;;;;;;;9.87;1.60;;;14.50;99.90;;;;;;5049530;28;20694;-72
2022/10/01 11:13:08;;;;;;;13.10;1.90;;;14.60;99.90;;;;;;5047829;28;20291;-72
2022/10/01 11:15:55;;;;;;;10.35;1.70;;;14.60;99.90;;;;;;5055185;28;20271;-72
2022/10/01 11:18:41;;;;;;;11.00;1.07;;;14.70;99.90;;;;;;5076350;28;20094;-72
2022/10/01 11:21:31;;;;;;;7.73;1.00;;;14.70;99.90;;;;;;5055829;28;20278;-72
2022/10/01 11:24:19;;;;;;;8.00;1.03;;;14.70;98.70;;;;;;5064911;28;20758;-73
2022/10/01 11:26:51;;;;;;;10.03;1.30;;;14.70;98.70;;;;;;5067852;28;20663;-73
2022/10/01 11:29:20;;;;;;;10.87;1.67;;;14.90;99.90;;;;;;5058810;28;20299;-72
2022/10/01 11:32:10;;;;;;;7.77;1.20;;;15.00;99.90;;;;;;5051659;28;20283;-72
2022/10/01 11:34:51;;;;;;;8.30;1.50;;;14.80;98.20;;;;;;5070940;28;20542;-72
2022/10/01 11:37:46;;;;;;;12.77;1.47;;;14.70;99.50;;;;;;5063620;28;20280;-72
2022/10/01 11:40:32;;;;;;;8.77;1.30;;;14.70;99.00;;;;;;5075232;28;20791;-72
2022/10/01 11:43:21;;;;;;;8.37;1.23;;;15.00;99.90;;;;;;5061956;28;20276;-72
2022/10/01 11:45:52;;;;;;;6.73;1.17;;;15.30;99.90;;;;;;5070527;28;20373;-72
2022/10/01 11:48:28;;;;;;;8.43;1.23;;;15.50;97.60;;;;;;5057389;28;20304;-72
2022/10/01 11:51:04;;;;;;;7.63;1.10;;;15.60;96.50;;;;;;5083532;28;20638;-72
2022/10/01 11:53:36;;;;;;;9.27;1.03;;;15.60;93.20;;;;;;5065326;28;20357;-72
2022/10/01 11:59:22;;;;;;;12.43;1.93;;;16.10;93.30;;;;;;5083863;28;20326;-72
2022/10/01 12:01:59;;;;;;;9.93;1.97;;;16.30;90.20;;;;;;5062088;28;20289;-72
2022/10/01 12:04:39;;;;;;;8.60;2.07;;;16.30;91.30;;;;;;5072864;28;20813;-72
2022/10/01 12:07:13;;;;;;;11.37;1.43;;;16.30;89.40;;;;;;5093120;28;20739;-73
2022/10/01 12:10:03;;;;;;;10.43;2.00;;;16.10;87.70;;;;;;5073618;28;20283;-73
2022/10/01 12:12:38;;;;;;;9.77;2.00;;;15.90;88.60;;;;;;5064053;28;20048;-73
2022/10/01 12:15:22;;;;;;;9.25;1.38;;;15.80;91.20;;;;;;5072080;28;20715;-72
2022/10/01 12:17:54;;;;;;;9.17;2.00;;;15.80;91.40;;;;;;5055405;28;20053;-71
2022/10/01 12:20:38;;;;;;;10.43;1.40;;;15.90;90.30;;;;;;5051001;28;20355;-71
2022/10/01 12:23:09;;;;;;;9.20;2.27;;;15.90;88.00;;;;;;5066988;28;20766;-71
2022/10/01 12:25:45;;;;;;;10.07;1.43;;;16.00;88.70;;;;;;5072176;28;20294;-71
2022/10/01 12:28:18;;;;;;;7.17;1.03;;;16.10;86.40;;;;;;5080330;28;20306;-71
2022/10/01 12:31:09;;;;;;;11.47;1.70;;;16.20;87.30;;;;;;5055034;28;20279;-71
2022/10/01 12:34:08;;;;;;;8.87;1.63;;;16.20;87.00;;;;;;5056526;28;20289;-71
2022/10/01 12:36:56;;;;;;;13.27;1.73;;;16.20;89.00;;;;;;5076458;28;20834;-71
2022/10/01 12:39:34;;;;;;;13.00;1.73;;;15.90;90.60;;;;;;5071788;28;20339;-71
2022/10/01 12:42:04;;;;;;;9.27;1.63;;;15.70;92.90;;;;;;5073088;28;20813;-70
2022/10/01 12:44:35;;;;;;;9.27;1.43;;;15.60;92.80;;;;;;5071356;28;20282;-71
2022/10/01 12:47:23;;;;;;;7.07;0.87;;;15.60;93.20;;;;;;5070214;28;20373;-70
2022/10/01 12:50:03;;;;;;;9.43;1.30;;;15.60;93.80;;;;;;5072870;28;20274;-70
2022/10/01 12:53:06;;;;;;;10.87;1.57;;;15.50;92.00;;;;;;5073599;28;20849;-70
2022/10/01 12:55:56;;;;;;;10.77;1.47;;;15.50;92.00;;;;;;5070186;28;20279;-71
2022/10/01 12:58:37;;;;;;;12.50;1.40;;;15.60;93.10;;;;;;5049822;28;20811;-70
2022/10/01 13:01:34;;;;;;;10.27;1.10;;;15.60;92.10;;;;;;5063744;28;20289;-71
2022/10/01 13:04:30;;;;;;;9.47;1.40;;;15.60;90.90;;;;;;5075729;28;20765;-70
2022/10/01 13:07:14;;;;;;;9.50;1.23;;;15.70;89.20;;;;;;5041855;28;20819;-70
2022/10/01 13:09:52;;;;;;;9.77;1.35;;;15.70;89.70;;;;;;5050674;28;20477;-71
2022/10/01 13:12:42;;;;;;;8.50;1.73;;;15.70;90.70;;;;;;5061967;28;20497;-70